sensor_id;sensor_type;location;lat;lon;timestamp;P1;durP1;ratioP1;P2;durP2;ratioP2
53843;SDS011;39744;53.314;5.710;2022-10-31T00:00:49;15.95;;;8.75;;
53843;SDS011;39744;53.314;5.710;2022-10-31T00:03:15;20.50;;;8.85;;
53843;SDS011;39744;53.314;5.710;2022-10-31T00:05:43;14.88;;;8.43;;
53843;SDS011;39744;53.314;5.710;2022-10-31T00:08:12;16.92;;;8.48;;
53843;SDS011;39744;53.314;5.710;2022-10-31T00:10:42;18.20;;;8.07;;
53843;SDS011;39744;53.314;5.710;2022-10-31T00:13:09;18.75;;;8.80;;
53843;SDS011;39744;53.314;5.710;2022-10-31T00:15:36;16.10;;;9.40;;
53843;SDS011;39744;53.314;5.710;2022-10-31T00:18:03;15.98;;;9.27;;
53843;SDS011;39744;53.314;5.710;2022-10-31T00:20:30;21.23;;;9.95;;
53843;SDS011;39744;53.314;5.710;2022-10-31T00:22:57;17.85;;;9.45;;
53843;SDS011;39744;53.314;5.710;2022-10-31T00:25:24;20.30;;;9.30;;
53843;SDS011;39744;53.314;5.710;2022-10-31T00:27:50;19.83;;;9.73;;
53843;SDS011;39744;53.314;5.710;2022-10-31T00:30:15;24.08;;;10.73;;
53843;SDS011;39744;53.314;5.710;2022-10-31T00:32:41;18.13;;;10.25;;
53843;SDS011;39744;53.314;5.710;2022-10-31T00:35:07;20.40;;;10.52;;
53843;SDS011;39744;53.314;5.710;2022-10-31T00:37:32;24.08;;;11.30;;
53843;SDS011;39744;53.314;5.710;2022-10-31T00:39:58;18.23;;;10.48;;
53843;SDS011;39744;53.314;5.710;2022-10-31T00:42:24;21.35;;;10.05;;
53843;SDS011;39744;53.314;5.710;2022-10-31T00:44:49;25.05;;;10.98;;
53843;SDS011;39744;53.314;5.710;2022-10-31T00:47:15;22.88;;;11.65;;
53843;SDS011;39744;53.314;5.710;2022-10-31T00:49:40;19.70;;;11.07;;
53843;SDS011;39744;53.314;5.710;2022-10-31T00:52:06;29.83;;;11.40;;
53843;SDS011;39744;53.314;5.710;2022-10-31T00:54:32;25.20;;;11.65;;
53843;SDS011;39744;53.314;5.710;2022-10-31T00:56:57;20.20;;;11.73;;
53843;SDS011;39744;53.314;5.710;2022-10-31T00:59:23;21.38;;;10.63;;
53843;SDS011;39744;53.314;5.710;2022-10-31T01:01:49;22.50;;;12.05;;
53843;SDS011;39744;53.314;5.710;2022-10-31T01:04:14;24.30;;;12.07;;
53843;SDS011;39744;53.314;5.710;2022-10-31T01:06:40;23.08;;;12.40;;
53843;SDS011;39744;53.314;5.710;2022-10-31T01:09:06;24.08;;;12.32;;
53843;SDS011;39744;53.314;5.710;2022-10-31T01:11:32;24.35;;;13.13;;
53843;SDS011;39744;53.314;5.710;2022-10-31T01:13:58;30.20;;;12.77;;
53843;SDS011;39744;53.314;5.710;2022-10-31T01:16:24;28.58;;;12.98;;
53843;SDS011;39744;53.314;5.710;2022-10-31T01:18:51;26.02;;;14.07;;
53843;SDS011;39744;53.314;5.710;2022-10-31T01:21:18;31.67;;;13.82;;
53843;SDS011;39744;53.314;5.710;2022-10-31T01:23:46;28.23;;;14.30;;
53843;SDS011;39744;53.314;5.710;2022-10-31T01:26:13;27.23;;;13.18;;
53843;SDS011;39744;53.314;5.710;2022-10-31T01:28:45;32.00;;;13.55;;
53843;SDS011;39744;53.314;5.710;2022-10-31T01:31:13;28.38;;;12.13;;
53843;SDS011;39744;53.314;5.710;2022-10-31T01:33:39;28.63;;;12.13;;
53843;SDS011;39744;53.314;5.710;2022-10-31T01:36:12;27.38;;;13.88;;
53843;SDS011;39744;53.314;5.710;2022-10-31T01:41:03;24.58;;;12.77;;
53843;SDS011;39744;53.314;5.710;2022-10-31T01:43:42;24.27;;;12.05;;
53843;SDS011;39744;53.314;5.710;2022-10-31T01:46:26;24.88;;;12.65;;
53843;SDS011;39744;53.314;5.710;2022-10-31T01:49:02;26.15;;;12.40;;
53843;SDS011;39744;53.314;5.710;2022-10-31T01:51:34;29.00;;;12.52;;
53843;SDS011;39744;53.314;5.710;2022-10-31T01:54:04;26.10;;;13.15;;
53843;SDS011;39744;53.314;5.710;2022-10-31T01:56:32;29.05;;;13.10;;
53843;SDS011;39744;53.314;5.710;2022-10-31T01:59:01;30.25;;;13.27;;
53843;SDS011;39744;53.314;5.710;2022-10-31T02:01:32;28.63;;;12.95;;
53843;SDS011;39744;53.314;5.710;2022-10-31T02:03:57;23.08;;;12.43;;
53843;SDS011;39744;53.314;5.710;2022-10-31T02:06:37;25.27;;;13.15;;
53843;SDS011;39744;53.314;5.710;2022-10-31T02:09:07;27.77;;;13.35;;
53843;SDS011;39744;53.314;5.710;2022-10-31T02:11:34;27.40;;;13.85;;
53843;SDS011;39744;53.314;5.710;2022-10-31T02:14:00;28.33;;;14.50;;
53843;SDS011;39744;53.314;5.710;2022-10-31T02:16:27;32.83;;;14.98;;
53843;SDS011;39744;53.314;5.710;2022-10-31T02:18:53;33.88;;;14.90;;
53843;SDS011;39744;53.314;5.710;2022-10-31T02:21:29;31.73;;;14.02;;
53843;SDS011;39744;53.314;5.710;2022-10-31T02:29:55;35.72;;;15.00;;
53843;SDS011;39744;53.314;5.710;2022-10-31T02:32:35;32.33;;;14.60;;
53843;SDS011;39744;53.314;5.710;2022-10-31T02:35:15;27.52;;;14.90;;
53843;SDS011;39744;53.314;5.710;2022-10-31T02:41:04;29.25;;;13.77;;
53843;SDS011;39744;53.314;5.710;2022-10-31T02:43:47;29.77;;;14.77;;
53843;SDS011;39744;53.314;5.710;2022-10-31T02:46:34;28.40;;;14.68;;
53843;SDS011;39744;53.314;5.710;2022-10-31T02:49:22;25.27;;;13.95;;
53843;SDS011;39744;53.314;5.710;2022-10-31T02:51:53;28.60;;;14.68;;
53843;SDS011;39744;53.314;5.710;2022-10-31T02:54:23;30.70;;;15.77;;
53843;SDS011;39744;53.314;5.710;2022-10-31T02:56:51;25.85;;;14.23;;
53843;SDS011;39744;53.314;5.710;2022-10-31T02:59:21;26.42;;;14.02;;
53843;SDS011;39744;53.314;5.710;2022-10-31T03:07:36;30.73;;;14.25;;
53843;SDS011;39744;53.314;5.710;2022-10-31T03:13:01;29.60;;;14.95;;
53843;SDS011;39744;53.314;5.710;2022-10-31T03:15:49;29.23;;;15.88;;
53843;SDS011;39744;53.314;5.710;2022-10-31T03:18:23;36.92;;;16.13;;
53843;SDS011;39744;53.314;5.710;2022-10-31T03:23:26;37.67;;;17.05;;
53843;SDS011;39744;53.314;5.710;2022-10-31T03:25:54;38.72;;;17.02;;
53843;SDS011;39744;53.314;5.710;2022-10-31T03:28:22;31.42;;;15.80;;
53843;SDS011;39744;53.314;5.710;2022-10-31T03:30:53;30.08;;;15.73;;
53843;SDS011;39744;53.314;5.710;2022-10-31T03:33:21;41.70;;;17.83;;
53843;SDS011;39744;53.314;5.710;2022-10-31T03:35:52;35.20;;;17.67;;
53843;SDS011;39744;53.314;5.710;2022-10-31T03:38:19;36.80;;;17.17;;
53843;SDS011;39744;53.314;5.710;2022-10-31T03:40:45;43.38;;;18.88;;
53843;SDS011;39744;53.314;5.710;2022-10-31T03:43:16;44.05;;;17.95;;
53843;SDS011;39744;53.314;5.710;2022-10-31T03:45:46;32.13;;;17.60;;
53843;SDS011;39744;53.314;5.710;2022-10-31T03:48:13;31.67;;;15.93;;
53843;SDS011;39744;53.314;5.710;2022-10-31T03:50:45;36.85;;;17.38;;
53843;SDS011;39744;53.314;5.710;2022-10-31T03:53:26;34.13;;;16.90;;
53843;SDS011;39744;53.314;5.710;2022-10-31T03:56:00;35.30;;;17.75;;
53843;SDS011;39744;53.314;5.710;2022-10-31T03:58:40;35.20;;;17.80;;
53843;SDS011;39744;53.314;5.710;2022-10-31T04:01:14;28.30;;;16.08;;
53843;SDS011;39744;53.314;5.710;2022-10-31T04:03:43;27.15;;;14.88;;
53843;SDS011;39744;53.314;5.710;2022-10-31T04:06:10;35.55;;;16.25;;
53843;SDS011;39744;53.314;5.710;2022-10-31T04:08:44;34.15;;;16.45;;
53843;SDS011;39744;53.314;5.710;2022-10-31T04:11:14;40.25;;;17.83;;
53843;SDS011;39744;53.314;5.710;2022-10-31T04:13:43;27.75;;;16.08;;
53843;SDS011;39744;53.314;5.710;2022-10-31T04:16:11;31.80;;;16.17;;
53843;SDS011;39744;53.314;5.710;2022-10-31T04:18:38;27.92;;;14.88;;
53843;SDS011;39744;53.314;5.710;2022-10-31T04:21:04;27.00;;;14.98;;
53843;SDS011;39744;53.314;5.710;2022-10-31T04:23:32;29.33;;;16.50;;
53843;SDS011;39744;53.314;5.710;2022-10-31T04:25:59;30.73;;;16.05;;
53843;SDS011;39744;53.314;5.710;2022-10-31T04:28:25;37.53;;;17.90;;
53843;SDS011;39744;53.314;5.710;2022-10-31T04:30:51;29.67;;;16.13;;
53843;SDS011;39744;53.314;5.710;2022-10-31T04:33:17;35.55;;;17.25;;
53843;SDS011;39744;53.314;5.710;2022-10-31T04:35:42;38.17;;;19.48;;
53843;SDS011;39744;53.314;5.710;2022-10-31T04:38:08;32.25;;;17.48;;
53843;SDS011;39744;53.314;5.710;2022-10-31T04:40:34;36.75;;;17.65;;
53843;SDS011;39744;53.314;5.710;2022-10-31T04:42:59;38.20;;;17.80;;
53843;SDS011;39744;53.314;5.710;2022-10-31T04:45:25;32.70;;;16.23;;
53843;SDS011;39744;53.314;5.710;2022-10-31T04:47:51;33.28;;;17.25;;
53843;SDS011;39744;53.314;5.710;2022-10-31T04:50:16;30.67;;;17.35;;
53843;SDS011;39744;53.314;5.710;2022-10-31T04:52:43;30.42;;;17.38;;
53843;SDS011;39744;53.314;5.710;2022-10-31T04:55:09;32.50;;;17.75;;
53843;SDS011;39744;53.314;5.710;2022-10-31T04:57:42;38.00;;;18.02;;
53843;SDS011;39744;53.314;5.710;2022-10-31T05:00:09;38.83;;;18.42;;
53843;SDS011;39744;53.314;5.710;2022-10-31T05:02:43;30.77;;;16.80;;
53843;SDS011;39744;53.314;5.710;2022-10-31T05:05:20;34.47;;;17.05;;
53843;SDS011;39744;53.314;5.710;2022-10-31T05:07:48;40.70;;;18.70;;
53843;SDS011;39744;53.314;5.710;2022-10-31T05:10:15;27.50;;;15.93;;
53843;SDS011;39744;53.314;5.710;2022-10-31T05:12:53;35.75;;;18.48;;
53843;SDS011;39744;53.314;5.710;2022-10-31T05:15:21;32.63;;;18.40;;
53843;SDS011;39744;53.314;5.710;2022-10-31T05:17:48;34.20;;;18.52;;
53843;SDS011;39744;53.314;5.710;2022-10-31T05:20:15;41.03;;;19.33;;
53843;SDS011;39744;53.314;5.710;2022-10-31T05:22:42;32.67;;;18.95;;
53843;SDS011;39744;53.314;5.710;2022-10-31T05:25:09;35.78;;;18.83;;
53843;SDS011;39744;53.314;5.710;2022-10-31T05:27:37;37.65;;;19.23;;
53843;SDS011;39744;53.314;5.710;2022-10-31T05:30:07;37.35;;;19.40;;
53843;SDS011;39744;53.314;5.710;2022-10-31T05:32:41;45.60;;;20.65;;
53843;SDS011;39744;53.314;5.710;2022-10-31T05:35:11;37.47;;;20.08;;
53843;SDS011;39744;53.314;5.710;2022-10-31T05:37:41;40.75;;;20.27;;
53843;SDS011;39744;53.314;5.710;2022-10-31T05:40:08;45.67;;;20.98;;
53843;SDS011;39744;53.314;5.710;2022-10-31T05:42:35;38.05;;;20.20;;
53843;SDS011;39744;53.314;5.710;2022-10-31T05:45:02;43.00;;;21.95;;
53843;SDS011;39744;53.314;5.710;2022-10-31T05:47:28;45.63;;;20.92;;
53843;SDS011;39744;53.314;5.710;2022-10-31T05:49:54;36.88;;;20.35;;
53843;SDS011;39744;53.314;5.710;2022-10-31T05:52:20;46.03;;;21.08;;
53843;SDS011;39744;53.314;5.710;2022-10-31T05:54:45;48.17;;;21.65;;
53843;SDS011;39744;53.314;5.710;2022-10-31T05:57:11;43.53;;;20.98;;
53843;SDS011;39744;53.314;5.710;2022-10-31T05:59:36;48.75;;;21.60;;
53843;SDS011;39744;53.314;5.710;2022-10-31T06:02:02;35.92;;;19.67;;
53843;SDS011;39744;53.314;5.710;2022-10-31T06:04:28;36.58;;;18.88;;
53843;SDS011;39744;53.314;5.710;2022-10-31T06:06:53;38.97;;;19.92;;
53843;SDS011;39744;53.314;5.710;2022-10-31T06:09:19;35.75;;;19.05;;
53843;SDS011;39744;53.314;5.710;2022-10-31T06:11:44;43.38;;;21.25;;
53843;SDS011;39744;53.314;5.710;2022-10-31T06:14:10;39.22;;;20.05;;
53843;SDS011;39744;53.314;5.710;2022-10-31T06:16:36;40.45;;;20.52;;
53843;SDS011;39744;53.314;5.710;2022-10-31T06:19:02;42.90;;;21.40;;
53843;SDS011;39744;53.314;5.710;2022-10-31T06:21:27;35.38;;;19.35;;
53843;SDS011;39744;53.314;5.710;2022-10-31T06:23:53;34.65;;;18.92;;
53843;SDS011;39744;53.314;5.710;2022-10-31T06:26:19;32.95;;;18.80;;
53843;SDS011;39744;53.314;5.710;2022-10-31T06:28:44;30.88;;;18.13;;
53843;SDS011;39744;53.314;5.710;2022-10-31T06:31:10;31.52;;;18.63;;
53843;SDS011;39744;53.314;5.710;2022-10-31T06:33:36;36.22;;;19.00;;
53843;SDS011;39744;53.314;5.710;2022-10-31T06:36:01;35.00;;;19.33;;
53843;SDS011;39744;53.314;5.710;2022-10-31T06:38:27;31.45;;;18.85;;
53843;SDS011;39744;53.314;5.710;2022-10-31T06:40:53;29.70;;;16.75;;
53843;SDS011;39744;53.314;5.710;2022-10-31T06:43:19;36.92;;;19.50;;
53843;SDS011;39744;53.314;5.710;2022-10-31T06:45:45;34.85;;;17.77;;
53843;SDS011;39744;53.314;5.710;2022-10-31T06:48:11;38.00;;;18.88;;
53843;SDS011;39744;53.314;5.710;2022-10-31T06:50:37;30.95;;;16.50;;
53843;SDS011;39744;53.314;5.710;2022-10-31T06:53:02;29.63;;;17.42;;
53843;SDS011;39744;53.314;5.710;2022-10-31T06:55:28;34.80;;;18.85;;
53843;SDS011;39744;53.314;5.710;2022-10-31T06:57:58;32.72;;;19.40;;
53843;SDS011;39744;53.314;5.710;2022-10-31T07:00:25;33.90;;;18.02;;
53843;SDS011;39744;53.314;5.710;2022-10-31T07:02:52;28.42;;;18.00;;
53843;SDS011;39744;53.314;5.710;2022-10-31T07:05:19;37.03;;;19.35;;
53843;SDS011;39744;53.314;5.710;2022-10-31T07:07:45;34.50;;;18.25;;
53843;SDS011;39744;53.314;5.710;2022-10-31T07:10:10;29.05;;;17.48;;
53843;SDS011;39744;53.314;5.710;2022-10-31T07:12:36;30.17;;;17.50;;
53843;SDS011;39744;53.314;5.710;2022-10-31T07:15:02;31.38;;;18.00;;
53843;SDS011;39744;53.314;5.710;2022-10-31T07:17:28;35.85;;;19.88;;
53843;SDS011;39744;53.314;5.710;2022-10-31T07:19:54;27.27;;;17.08;;
53843;SDS011;39744;53.314;5.710;2022-10-31T07:22:20;31.92;;;19.35;;
53843;SDS011;39744;53.314;5.710;2022-10-31T07:24:45;35.10;;;19.27;;
53843;SDS011;39744;53.314;5.710;2022-10-31T07:27:11;31.70;;;19.38;;
53843;SDS011;39744;53.314;5.710;2022-10-31T07:29:36;28.90;;;18.33;;
53843;SDS011;39744;53.314;5.710;2022-10-31T07:32:02;39.90;;;21.23;;
53843;SDS011;39744;53.314;5.710;2022-10-31T07:34:28;33.05;;;18.70;;
53843;SDS011;39744;53.314;5.710;2022-10-31T07:36:53;36.40;;;20.17;;
53843;SDS011;39744;53.314;5.710;2022-10-31T07:39:19;37.28;;;21.30;;
53843;SDS011;39744;53.314;5.710;2022-10-31T07:41:44;37.00;;;21.23;;
53843;SDS011;39744;53.314;5.710;2022-10-31T07:44:10;37.83;;;21.17;;
53843;SDS011;39744;53.314;5.710;2022-10-31T07:46:37;36.38;;;20.55;;
53843;SDS011;39744;53.314;5.710;2022-10-31T07:49:02;39.65;;;21.40;;
53843;SDS011;39744;53.314;5.710;2022-10-31T07:51:28;34.88;;;21.08;;
53843;SDS011;39744;53.314;5.710;2022-10-31T07:53:54;39.35;;;22.05;;
53843;SDS011;39744;53.314;5.710;2022-10-31T07:56:20;35.90;;;21.25;;
53843;SDS011;39744;53.314;5.710;2022-10-31T07:58:45;37.15;;;21.25;;
53843;SDS011;39744;53.314;5.710;2022-10-31T08:01:11;36.70;;;21.90;;
53843;SDS011;39744;53.314;5.710;2022-10-31T08:03:37;40.08;;;21.35;;
53843;SDS011;39744;53.314;5.710;2022-10-31T08:06:02;41.38;;;22.55;;
53843;SDS011;39744;53.314;5.710;2022-10-31T08:08:28;32.85;;;21.15;;
53843;SDS011;39744;53.314;5.710;2022-10-31T08:10:54;38.75;;;21.92;;
53843;SDS011;39744;53.314;5.710;2022-10-31T08:13:20;36.60;;;22.60;;
53843;SDS011;39744;53.314;5.710;2022-10-31T08:15:46;34.80;;;21.45;;
53843;SDS011;39744;53.314;5.710;2022-10-31T08:18:15;41.40;;;21.88;;
53843;SDS011;39744;53.314;5.710;2022-10-31T08:20:42;42.75;;;22.70;;
53843;SDS011;39744;53.314;5.710;2022-10-31T08:23:08;38.92;;;22.17;;
53843;SDS011;39744;53.314;5.710;2022-10-31T08:25:35;37.70;;;21.77;;
53843;SDS011;39744;53.314;5.710;2022-10-31T08:28:02;38.17;;;21.70;;
53843;SDS011;39744;53.314;5.710;2022-10-31T08:30:28;36.92;;;21.63;;
53843;SDS011;39744;53.314;5.710;2022-10-31T08:35:50;33.85;;;21.17;;
53843;SDS011;39744;53.314;5.710;2022-10-31T08:38:16;36.88;;;22.08;;
53843;SDS011;39744;53.314;5.710;2022-10-31T08:40:42;38.05;;;21.45;;
53843;SDS011;39744;53.314;5.710;2022-10-31T08:43:12;37.63;;;20.88;;
53843;SDS011;39744;53.314;5.710;2022-10-31T08:45:38;36.42;;;21.35;;
53843;SDS011;39744;53.314;5.710;2022-10-31T08:48:05;41.42;;;21.45;;
53843;SDS011;39744;53.314;5.710;2022-10-31T08:50:34;33.63;;;20.50;;
53843;SDS011;39744;53.314;5.710;2022-10-31T08:53:09;34.42;;;19.85;;
53843;SDS011;39744;53.314;5.710;2022-10-31T08:55:44;38.58;;;20.42;;
53843;SDS011;39744;53.314;5.710;2022-10-31T08:58:15;36.67;;;19.73;;
53843;SDS011;39744;53.314;5.710;2022-10-31T09:00:42;34.67;;;18.17;;
53843;SDS011;39744;53.314;5.710;2022-10-31T09:03:12;30.88;;;18.27;;
53843;SDS011;39744;53.314;5.710;2022-10-31T09:05:39;32.53;;;16.92;;
53843;SDS011;39744;53.314;5.710;2022-10-31T09:08:05;27.95;;;17.38;;
53843;SDS011;39744;53.314;5.710;2022-10-31T09:10:32;32.15;;;16.85;;
53843;SDS011;39744;53.314;5.710;2022-10-31T09:13:04;27.15;;;16.92;;
53843;SDS011;39744;53.314;5.710;2022-10-31T09:15:34;31.30;;;16.15;;
53843;SDS011;39744;53.314;5.710;2022-10-31T09:18:01;25.65;;;16.17;;
53843;SDS011;39744;53.314;5.710;2022-10-31T09:20:28;27.42;;;14.90;;
53843;SDS011;39744;53.314;5.710;2022-10-31T09:22:58;24.38;;;14.02;;
53843;SDS011;39744;53.314;5.710;2022-10-31T09:25:25;25.55;;;14.32;;
53843;SDS011;39744;53.314;5.710;2022-10-31T09:27:55;25.23;;;13.88;;
53843;SDS011;39744;53.314;5.710;2022-10-31T09:30:21;22.25;;;13.18;;
53843;SDS011;39744;53.314;5.710;2022-10-31T09:32:47;22.42;;;13.98;;
53843;SDS011;39744;53.314;5.710;2022-10-31T09:35:12;28.20;;;13.88;;
53843;SDS011;39744;53.314;5.710;2022-10-31T09:37:38;24.33;;;13.82;;
53843;SDS011;39744;53.314;5.710;2022-10-31T09:40:04;23.35;;;14.07;;
53843;SDS011;39744;53.314;5.710;2022-10-31T09:45:42;19.83;;;12.32;;
53843;SDS011;39744;53.314;5.710;2022-10-31T09:50:57;25.17;;;12.07;;
53843;SDS011;39744;53.314;5.710;2022-10-31T09:53:42;17.67;;;11.20;;
53843;SDS011;39744;53.314;5.710;2022-10-31T09:56:22;18.70;;;11.90;;
53843;SDS011;39744;53.314;5.710;2022-10-31T09:58:57;17.90;;;10.77;;
53843;SDS011;39744;53.314;5.710;2022-10-31T10:01:39;19.05;;;10.98;;
53843;SDS011;39744;53.314;5.710;2022-10-31T10:10:14;16.80;;;9.80;;
53843;SDS011;39744;53.314;5.710;2022-10-31T10:12:49;15.55;;;9.02;;
53843;SDS011;39744;53.314;5.710;2022-10-31T10:21:25;17.05;;;9.18;;
53843;SDS011;39744;53.314;5.710;2022-10-31T10:23:59;14.68;;;7.90;;
53843;SDS011;39744;53.314;5.710;2022-10-31T10:26:41;14.30;;;7.97;;
53843;SDS011;39744;53.314;5.710;2022-10-31T10:31:48;14.00;;;7.50;;
53843;SDS011;39744;53.314;5.710;2022-10-31T10:34:18;15.18;;;8.70;;
53843;SDS011;39744;53.314;5.710;2022-10-31T10:39:44;13.75;;;8.20;;
53843;SDS011;39744;53.314;5.710;2022-10-31T10:42:13;17.60;;;9.30;;
53843;SDS011;39744;53.314;5.710;2022-10-31T10:44:59;14.77;;;9.10;;
53843;SDS011;39744;53.314;5.710;2022-10-31T10:47:53;19.83;;;8.25;;
53843;SDS011;39744;53.314;5.710;2022-10-31T10:50:30;16.13;;;8.90;;
53843;SDS011;39744;53.314;5.710;2022-10-31T10:53:02;17.50;;;9.90;;
53843;SDS011;39744;53.314;5.710;2022-10-31T10:58:20;14.73;;;10.23;;
53843;SDS011;39744;53.314;5.710;2022-10-31T11:00:46;15.45;;;9.95;;
53843;SDS011;39744;53.314;5.710;2022-10-31T11:03:14;18.65;;;10.63;;
53843;SDS011;39744;53.314;5.710;2022-10-31T11:05:54;19.67;;;10.57;;
53843;SDS011;39744;53.314;5.710;2022-10-31T11:08:27;16.73;;;11.17;;
53843;SDS011;39744;53.314;5.710;2022-10-31T11:11:01;18.17;;;10.05;;
53843;SDS011;39744;53.314;5.710;2022-10-31T11:13:51;17.20;;;9.98;;
53843;SDS011;39744;53.314;5.710;2022-10-31T11:18:51;14.40;;;8.20;;
53843;SDS011;39744;53.314;5.710;2022-10-31T11:21:38;14.32;;;8.10;;
53843;SDS011;39744;53.314;5.710;2022-10-31T11:26:37;14.98;;;8.25;;
53843;SDS011;39744;53.314;5.710;2022-10-31T11:29:05;12.57;;;8.07;;
53843;SDS011;39744;53.314;5.710;2022-10-31T11:31:37;13.68;;;8.18;;
53843;SDS011;39744;53.314;5.710;2022-10-31T11:34:04;13.73;;;7.80;;
53843;SDS011;39744;53.314;5.710;2022-10-31T11:36:37;18.55;;;8.02;;
53843;SDS011;39744;53.314;5.710;2022-10-31T11:39:13;15.80;;;8.65;;
53843;SDS011;39744;53.314;5.710;2022-10-31T11:41:43;14.13;;;8.05;;
53843;SDS011;39744;53.314;5.710;2022-10-31T11:44:15;11.38;;;7.60;;
53843;SDS011;39744;53.314;5.710;2022-10-31T11:46:48;14.13;;;8.07;;
53843;SDS011;39744;53.314;5.710;2022-10-31T11:49:29;14.90;;;8.00;;
53843;SDS011;39744;53.314;5.710;2022-10-31T11:51:58;14.63;;;7.72;;
53843;SDS011;39744;53.314;5.710;2022-10-31T11:54:41;15.50;;;8.23;;
53843;SDS011;39744;53.314;5.710;2022-10-31T11:57:24;15.93;;;7.47;;
53843;SDS011;39744;53.314;5.710;2022-10-31T12:02:28;13.05;;;7.22;;
53843;SDS011;39744;53.314;5.710;2022-10-31T12:05:02;11.02;;;6.60;;
53843;SDS011;39744;53.314;5.710;2022-10-31T12:07:36;10.48;;;6.00;;
53843;SDS011;39744;53.314;5.710;2022-10-31T12:10:05;10.40;;;5.93;;
53843;SDS011;39744;53.314;5.710;2022-10-31T12:12:39;9.52;;;5.05;;
53843;SDS011;39744;53.314;5.710;2022-10-31T12:23:00;9.23;;;5.13;;
53843;SDS011;39744;53.314;5.710;2022-10-31T12:25:55;8.82;;;4.65;;
53843;SDS011;39744;53.314;5.710;2022-10-31T12:43:16;10.15;;;4.75;;
53843;SDS011;39744;53.314;5.710;2022-10-31T12:46:57;13.40;;;5.53;;
53843;SDS011;39744;53.314;5.710;2022-10-31T12:49:27;9.88;;;5.03;;
53843;SDS011;39744;53.314;5.710;2022-10-31T12:55:31;12.27;;;6.75;;
53843;SDS011;39744;53.314;5.710;2022-10-31T13:00:49;19.77;;;8.50;;
53843;SDS011;39744;53.314;5.710;2022-10-31T13:03:36;13.07;;;7.85;;
53843;SDS011;39744;53.314;5.710;2022-10-31T13:06:22;18.17;;;8.68;;
53843;SDS011;39744;53.314;5.710;2022-10-31T13:09:02;13.68;;;7.97;;
53843;SDS011;39744;53.314;5.710;2022-10-31T13:14:07;17.70;;;8.55;;
53843;SDS011;39744;53.314;5.710;2022-10-31T13:16:50;17.08;;;8.80;;
53843;SDS011;39744;53.314;5.710;2022-10-31T13:19:18;16.98;;;9.00;;
53843;SDS011;39744;53.314;5.710;2022-10-31T13:22:04;15.98;;;8.55;;
53843;SDS011;39744;53.314;5.710;2022-10-31T13:24:38;17.92;;;9.43;;
53843;SDS011;39744;53.314;5.710;2022-10-31T13:27:12;18.20;;;8.23;;
53843;SDS011;39744;53.314;5.710;2022-10-31T13:33:23;14.50;;;7.40;;
53843;SDS011;39744;53.314;5.710;2022-10-31T13:35:52;15.70;;;7.55;;
53843;SDS011;39744;53.314;5.710;2022-10-31T13:41:11;15.05;;;7.15;;
53843;SDS011;39744;53.314;5.710;2022-10-31T13:43:58;11.65;;;6.28;;
53843;SDS011;39744;53.314;5.710;2022-10-31T13:46:43;12.25;;;5.63;;
53843;SDS011;39744;53.314;5.710;2022-10-31T13:54:35;14.05;;;5.75;;
53843;SDS011;39744;53.314;5.710;2022-10-31T14:00:22;12.60;;;4.60;;
53843;SDS011;39744;53.314;5.710;2022-10-31T14:02:51;10.15;;;4.70;;
53843;SDS011;39744;53.314;5.710;2022-10-31T14:05:23;9.85;;;3.95;;
53843;SDS011;39744;53.314;5.710;2022-10-31T14:08:03;9.32;;;3.25;;
53843;SDS011;39744;53.314;5.710;2022-10-31T14:10:37;9.95;;;3.78;;
53843;SDS011;39744;53.314;5.710;2022-10-31T14:13:14;8.30;;;3.78;;
53843;SDS011;39744;53.314;5.710;2022-10-31T14:15:56;9.63;;;3.92;;
53843;SDS011;39744;53.314;5.710;2022-10-31T14:18:31;9.68;;;4.47;;
53843;SDS011;39744;53.314;5.710;2022-10-31T14:21:13;10.63;;;4.30;;
53843;SDS011;39744;53.314;5.710;2022-10-31T14:23:41;10.38;;;4.65;;
53843;SDS011;39744;53.314;5.710;2022-10-31T14:28:50;18.73;;;4.25;;
53843;SDS011;39744;53.314;5.710;2022-10-31T14:31:34;11.88;;;4.28;;
53843;SDS011;39744;53.314;5.710;2022-10-31T14:34:35;9.50;;;3.90;;
53843;SDS011;39744;53.314;5.710;2022-10-31T14:48:40;9.82;;;3.90;;
53843;SDS011;39744;53.314;5.710;2022-10-31T14:51:19;8.27;;;3.47;;
53843;SDS011;39744;53.314;5.710;2022-10-31T14:53:48;11.07;;;4.53;;
53843;SDS011;39744;53.314;5.710;2022-10-31T14:56:19;8.93;;;4.30;;
53843;SDS011;39744;53.314;5.710;2022-10-31T14:58:54;8.93;;;4.05;;
53843;SDS011;39744;53.314;5.710;2022-10-31T15:01:27;12.23;;;4.75;;
53843;SDS011;39744;53.314;5.710;2022-10-31T15:03:57;11.68;;;4.65;;
53843;SDS011;39744;53.314;5.710;2022-10-31T15:06:30;7.32;;;4.05;;
53843;SDS011;39744;53.314;5.710;2022-10-31T15:09:04;12.75;;;4.15;;
53843;SDS011;39744;53.314;5.710;2022-10-31T15:11:35;11.55;;;4.50;;
53843;SDS011;39744;53.314;5.710;2022-10-31T15:14:14;14.85;;;5.05;;
53843;SDS011;39744;53.314;5.710;2022-10-31T15:16:52;12.40;;;4.95;;
53843;SDS011;39744;53.314;5.710;2022-10-31T15:19:24;12.90;;;4.82;;
53843;SDS011;39744;53.314;5.710;2022-10-31T15:21:52;10.55;;;4.78;;
53843;SDS011;39744;53.314;5.710;2022-10-31T15:24:19;9.25;;;4.05;;
53843;SDS011;39744;53.314;5.710;2022-10-31T15:26:49;11.60;;;4.10;;
53843;SDS011;39744;53.314;5.710;2022-10-31T15:29:18;11.20;;;4.72;;
53843;SDS011;39744;53.314;5.710;2022-10-31T15:32:01;10.13;;;4.40;;
53843;SDS011;39744;53.314;5.710;2022-10-31T15:34:42;12.15;;;4.63;;
53843;SDS011;39744;53.314;5.710;2022-10-31T15:37:10;11.68;;;4.20;;
53843;SDS011;39744;53.314;5.710;2022-10-31T15:39:37;12.68;;;3.67;;
53843;SDS011;39744;53.314;5.710;2022-10-31T15:42:03;10.18;;;4.47;;
53843;SDS011;39744;53.314;5.710;2022-10-31T15:44:33;11.32;;;4.13;;
53843;SDS011;39744;53.314;5.710;2022-10-31T15:47:02;10.27;;;3.77;;
53843;SDS011;39744;53.314;5.710;2022-10-31T15:52:09;10.10;;;3.78;;
53843;SDS011;39744;53.314;5.710;2022-10-31T15:54:46;9.50;;;3.70;;
53843;SDS011;39744;53.314;5.710;2022-10-31T15:59:42;12.70;;;3.38;;
53843;SDS011;39744;53.314;5.710;2022-10-31T16:02:11;6.50;;;2.80;;
53843;SDS011;39744;53.314;5.710;2022-10-31T16:04:47;9.43;;;3.10;;
53843;SDS011;39744;53.314;5.710;2022-10-31T16:07:16;9.82;;;3.38;;
53843;SDS011;39744;53.314;5.710;2022-10-31T16:09:50;13.68;;;3.30;;
53843;SDS011;39744;53.314;5.710;2022-10-31T16:12:17;7.13;;;2.85;;
53843;SDS011;39744;53.314;5.710;2022-10-31T16:14:43;7.38;;;3.22;;
53843;SDS011;39744;53.314;5.710;2022-10-31T16:17:16;11.20;;;3.35;;
53843;SDS011;39744;53.314;5.710;2022-10-31T16:22:37;9.13;;;3.92;;
53843;SDS011;39744;53.314;5.710;2022-10-31T16:25:11;12.38;;;4.45;;
53843;SDS011;39744;53.314;5.710;2022-10-31T16:27:39;12.38;;;4.20;;
53843;SDS011;39744;53.314;5.710;2022-10-31T16:32:54;13.07;;;4.00;;
53843;SDS011;39744;53.314;5.710;2022-10-31T16:37:50;9.70;;;4.22;;
53843;SDS011;39744;53.314;5.710;2022-10-31T16:40:16;12.82;;;4.40;;
53843;SDS011;39744;53.314;5.710;2022-10-31T16:42:42;10.45;;;4.45;;
53843;SDS011;39744;53.314;5.710;2022-10-31T16:45:19;11.65;;;5.03;;
53843;SDS011;39744;53.314;5.710;2022-10-31T16:47:46;14.55;;;4.85;;
53843;SDS011;39744;53.314;5.710;2022-10-31T16:50:14;10.57;;;4.80;;
53843;SDS011;39744;53.314;5.710;2022-10-31T16:52:41;12.90;;;5.65;;
53843;SDS011;39744;53.314;5.710;2022-10-31T16:55:10;14.77;;;5.68;;
53843;SDS011;39744;53.314;5.710;2022-10-31T16:57:36;13.00;;;6.30;;
53843;SDS011;39744;53.314;5.710;2022-10-31T17:00:02;14.43;;;5.00;;